Fordoche, Louisiana
Current Conditions -  °F | °C
As of 4:35 PM on Monday 22 Dec 2014 (Local Time) from KHZR Reporting Station
Broken Clouds Broken Clouds  
Wind Chill: 73°   Ceiling: 4200
Heat Index: 73°   Visibility: 10mi
Dew Point: 62°   Wind: 13mph
Humidity: 68%   Direction: 200°SSW
Pressure: 29.65"   Gusts: 18mph
Location:  30.6°N, 91.62°W
Report Text: KHZR 222235Z AUTO 20011G16KT 10SM SCT035 BKN042 23/17 A2965 RMK AO2 T02260165
Loading
Personal Weather Stations






























Interactive Weather Map New forecast layout! Learn more

10-Day Weather Forecast

Advertisements
Track Severe Weather on mobile